createdAt,value
2022-09-28T00:00:02.592Z,9.50
2022-09-28T00:01:02.622Z,9.49
2022-09-28T00:02:02.663Z,9.43
2022-09-28T00:03:02.635Z,9.39
2022-09-28T00:04:02.696Z,9.43
2022-09-28T00:05:02.560Z,9.42
2022-09-28T00:06:02.647Z,9.31
2022-09-28T00:07:02.651Z,9.43
2022-09-28T00:08:02.633Z,9.40
2022-09-28T00:09:02.659Z,9.45
2022-09-28T00:10:02.639Z,9.40
2022-09-28T00:11:02.670Z,9.50
2022-09-28T00:12:02.628Z,9.45
2022-09-28T00:13:02.666Z,9.43
2022-09-28T00:14:02.637Z,9.56
2022-09-28T00:15:02.644Z,9.43
2022-09-28T00:16:02.586Z,9.43
2022-09-28T00:17:02.502Z,9.45
2022-09-28T00:18:02.587Z,9.42
2022-09-28T00:19:02.462Z,9.38
2022-09-28T00:20:02.465Z,9.42
2022-09-28T00:21:02.498Z,9.43
2022-09-28T00:22:02.499Z,9.40
2022-09-28T00:23:02.460Z,9.42
2022-09-28T00:24:02.518Z,9.31
2022-09-28T00:25:02.516Z,9.30
2022-09-28T00:26:02.541Z,9.43
2022-09-28T00:27:02.492Z,9.30
2022-09-28T00:28:02.509Z,9.40
2022-09-28T00:29:02.477Z,9.31
2022-09-28T00:30:02.501Z,9.31
2022-09-28T00:31:02.505Z,9.31
2022-09-28T00:32:02.948Z,9.35
2022-09-28T00:33:02.450Z,9.30
2022-09-28T00:34:02.501Z,9.39
2022-09-28T00:35:02.424Z,9.39
2022-09-28T00:36:02.362Z,9.40
2022-09-28T00:37:02.384Z,9.38
2022-09-28T00:38:02.332Z,9.35
2022-09-28T00:39:02.458Z,9.32
2022-09-28T00:40:02.316Z,9.32
2022-09-28T00:41:02.316Z,9.34
2022-09-28T00:42:02.470Z,9.30
2022-09-28T00:43:02.421Z,9.24
2022-09-28T00:44:02.380Z,9.35
2022-09-28T00:45:02.376Z,9.28
2022-09-28T00:46:02.433Z,9.34
2022-09-28T00:47:02.392Z,9.42
2022-09-28T00:48:02.409Z,9.39
2022-09-28T00:49:02.373Z,9.38
2022-09-28T00:50:02.354Z,9.35
2022-09-28T00:51:02.337Z,9.35
2022-09-28T00:52:02.451Z,9.28
2022-09-28T00:53:02.313Z,9.27
2022-09-28T00:54:02.219Z,9.39
2022-09-28T00:55:02.207Z,9.25
2022-09-28T00:56:02.203Z,9.27
2022-09-28T00:57:02.230Z,9.32
2022-09-28T00:58:02.203Z,9.40
2022-09-28T00:59:02.239Z,9.31
2022-09-28T01:00:02.183Z,9.30
2022-09-28T01:01:02.233Z,9.31
2022-09-28T01:02:02.202Z,9.34
2022-09-28T01:03:02.253Z,9.27
2022-09-28T01:04:02.296Z,9.38
2022-09-28T01:05:02.220Z,9.40
2022-09-28T01:06:02.242Z,9.45
2022-09-28T01:07:02.301Z,9.34
2022-09-28T01:08:02.224Z,9.48
2022-09-28T01:09:02.201Z,9.46
2022-09-28T01:10:02.302Z,9.52
2022-09-28T01:11:02.234Z,9.38
2022-09-28T01:12:02.184Z,9.42
2022-09-28T01:13:02.187Z,9.38
2022-09-28T01:14:02.096Z,9.46
2022-09-28T01:15:02.119Z,9.32
2022-09-28T01:16:02.148Z,9.34
2022-09-28T01:17:02.151Z,9.24
2022-09-28T01:18:02.192Z,9.32
2022-09-28T01:19:02.157Z,9.34
2022-09-28T01:20:02.048Z,9.38
2022-09-28T01:21:02.170Z,9.42
2022-09-28T01:22:02.207Z,9.32
2022-09-28T01:23:02.030Z,9.23
2022-09-28T01:24:02.200Z,9.28
2022-09-28T01:25:02.125Z,9.40
2022-09-28T01:26:02.071Z,9.27
2022-09-28T01:27:02.088Z,9.31
2022-09-28T01:28:02.066Z,9.32
2022-09-28T01:29:02.020Z,9.20
2022-09-28T01:30:02.079Z,9.32
2022-09-28T01:31:02.052Z,9.30
2022-09-28T01:32:02.099Z,9.40
2022-09-28T01:33:02.006Z,9.39
2022-09-28T01:34:01.962Z,9.35
2022-09-28T01:35:02.031Z,9.38
2022-09-28T01:36:01.968Z,9.42
2022-09-28T01:37:02.108Z,9.30
2022-09-28T01:38:01.950Z,9.46
2022-09-28T01:39:02.015Z,9.48
2022-09-28T01:40:02.002Z,9.40
2022-09-28T01:41:01.917Z,9.42
2022-09-28T01:42:01.988Z,9.43
2022-09-28T01:43:02.131Z,9.35
2022-09-28T01:44:01.881Z,9.39
2022-09-28T01:45:02.036Z,9.43
2022-09-28T01:46:02.098Z,9.31
2022-09-28T01:47:01.878Z,9.35
2022-09-28T01:48:01.961Z,9.39
2022-09-28T01:49:01.947Z,9.30
2022-09-28T01:50:01.907Z,9.31
2022-09-28T01:51:01.921Z,9.24
2022-09-28T01:52:01.831Z,9.25
2022-09-28T01:53:01.846Z,9.28
2022-09-28T01:54:01.863Z,9.32
2022-09-28T01:55:01.773Z,9.35
2022-09-28T01:56:02.838Z,9.32
2022-09-28T01:57:01.882Z,9.25
2022-09-28T01:58:01.864Z,9.30
2022-09-28T01:59:01.829Z,9.30
2022-09-28T02:00:01.900Z,9.21
2022-09-28T02:01:01.876Z,9.32
2022-09-28T02:02:01.859Z,9.23
2022-09-28T02:03:01.850Z,9.21
2022-09-28T02:04:01.912Z,9.28
2022-09-28T02:05:01.761Z,9.20
2022-09-28T02:06:01.860Z,9.28
2022-09-28T02:07:01.828Z,9.27
2022-09-28T02:08:01.724Z,9.30
2022-09-28T02:09:01.808Z,9.27
2022-09-28T02:10:01.918Z,9.24
2022-09-28T02:11:01.716Z,9.24
2022-09-28T02:12:01.781Z,9.25
2022-09-28T02:13:01.761Z,9.23
2022-09-28T02:14:01.672Z,9.16
2022-09-28T02:15:01.721Z,9.31
2022-09-28T02:16:01.727Z,9.24
2022-09-28T02:17:01.668Z,9.25
2022-09-28T02:18:01.690Z,9.31
2022-09-28T02:19:02.462Z,9.27
2022-09-28T02:20:02.679Z,9.16
2022-09-28T02:21:01.641Z,9.28
2022-09-28T02:22:01.718Z,9.18
2022-09-28T02:23:01.618Z,9.13
2022-09-28T02:24:01.714Z,9.16
2022-09-28T02:25:01.693Z,9.21
2022-09-28T02:26:01.625Z,9.30
2022-09-28T02:27:01.711Z,9.32
2022-09-28T02:28:01.695Z,9.25
2022-09-28T02:29:01.583Z,9.35
2022-09-28T02:30:01.672Z,9.35
2022-09-28T02:31:01.783Z,9.38
2022-09-28T02:32:01.588Z,9.31
2022-09-28T02:33:01.743Z,9.28
2022-09-28T02:34:01.639Z,9.42
2022-09-28T02:35:01.519Z,9.40
2022-09-28T02:36:01.638Z,9.43
2022-09-28T02:37:01.653Z,9.25
2022-09-28T02:38:01.520Z,9.31
2022-09-28T02:39:01.523Z,9.46
2022-09-28T02:40:01.522Z,9.32
2022-09-28T02:41:01.551Z,9.27
2022-09-28T02:42:02.922Z,9.32
2022-09-28T02:43:01.565Z,9.40
2022-09-28T02:44:01.454Z,9.39
2022-09-28T02:45:01.461Z,9.24
2022-09-28T02:46:01.477Z,9.24
2022-09-28T02:47:01.456Z,9.27
2022-09-28T02:48:01.609Z,9.24
2022-09-28T02:49:20.347Z,9.31
2022-09-28T02:50:03.440Z,9.27
2022-09-28T02:51:01.518Z,9.30
2022-09-28T02:52:01.544Z,9.28
2022-09-28T02:53:01.430Z,9.35
2022-09-28T02:54:01.558Z,9.35
2022-09-28T02:55:01.483Z,9.35
2022-09-28T02:56:02.412Z,9.28
2022-09-28T02:57:01.525Z,9.38
2022-09-28T02:58:01.520Z,9.34
2022-09-28T02:59:01.389Z,9.38
2022-09-28T03:00:01.510Z,9.35
2022-09-28T03:01:01.427Z,9.31
2022-09-28T03:02:01.428Z,9.35
2022-09-28T03:03:01.374Z,9.38
2022-09-28T03:04:02.455Z,9.42
2022-09-28T03:05:01.338Z,9.39
2022-09-28T03:06:01.371Z,9.28
2022-09-28T03:07:01.322Z,9.24
2022-09-28T03:08:01.306Z,9.39
2022-09-28T03:09:01.461Z,9.31
2022-09-28T03:10:01.384Z,9.35
2022-09-28T03:11:01.320Z,9.40
2022-09-28T03:12:01.458Z,9.45
2022-09-28T03:13:01.381Z,9.46
2022-09-28T03:14:01.252Z,9.49
2022-09-28T03:15:01.418Z,9.46
2022-09-28T03:16:01.384Z,9.50
2022-09-28T03:17:01.241Z,9.49
2022-09-28T03:18:01.352Z,9.53
2022-09-28T03:19:01.370Z,9.40
2022-09-28T03:20:01.250Z,9.42
2022-09-28T03:21:01.290Z,9.43
2022-09-28T03:22:01.370Z,9.34
2022-09-28T03:23:23.407Z,9.40
2022-09-28T03:24:03.233Z,9.27
2022-09-28T03:25:01.309Z,9.35
2022-09-28T03:26:01.211Z,9.24
2022-09-28T03:27:01.179Z,9.38
2022-09-28T03:28:01.158Z,9.45
2022-09-28T03:29:01.145Z,9.43
2022-09-28T03:30:01.537Z,9.31
2022-09-28T03:31:01.230Z,9.30
2022-09-28T03:32:01.224Z,9.34
2022-09-28T03:33:01.253Z,9.27
2022-09-28T03:34:01.207Z,9.28
2022-09-28T03:35:01.128Z,9.21
2022-09-28T03:36:01.267Z,9.18
2022-09-28T03:37:01.168Z,9.24
2022-09-28T03:38:01.109Z,9.23
2022-09-28T03:39:01.177Z,9.30
2022-09-28T03:40:01.214Z,9.25
2022-09-28T03:41:01.161Z,9.25
2022-09-28T03:42:01.213Z,9.24
2022-09-28T03:43:01.183Z,9.13
2022-09-28T03:44:01.070Z,9.09
2022-09-28T03:45:01.154Z,9.16
2022-09-28T03:46:01.409Z,9.16
2022-09-28T03:47:01.045Z,9.06
2022-09-28T03:48:01.041Z,9.06
2022-09-28T03:49:01.025Z,9.18
2022-09-28T03:50:01.037Z,9.04
2022-09-28T03:51:01.160Z,8.93
2022-09-28T03:52:01.041Z,9.04
2022-09-28T03:53:00.998Z,8.93
2022-09-28T03:54:00.969Z,8.97
2022-09-28T03:55:00.995Z,9.04
2022-09-28T03:56:00.969Z,9.01
2022-09-28T03:57:01.076Z,8.87
2022-09-28T03:58:01.053Z,8.91
2022-09-28T03:59:01.060Z,9.04
2022-09-28T04:00:01.013Z,9.06
2022-09-28T04:01:01.116Z,9.02
2022-09-28T04:02:00.957Z,9.02
2022-09-28T04:03:01.173Z,9.10
2022-09-28T04:04:01.001Z,8.97
2022-09-28T04:05:00.912Z,9.04
2022-09-28T04:06:00.971Z,9.13
2022-09-28T04:07:00.988Z,9.13
2022-09-28T04:08:01.889Z,9.06
2022-09-28T04:09:00.976Z,9.12
2022-09-28T04:10:00.988Z,8.93
2022-09-28T04:11:00.854Z,9.02
2022-09-28T04:12:04.142Z,9.05
2022-09-28T04:13:01.886Z,9.09
2022-09-28T04:14:00.822Z,8.97
2022-09-28T04:15:00.944Z,9.01
2022-09-28T04:16:01.017Z,9.04
2022-09-28T04:17:00.895Z,9.15
2022-09-28T04:18:00.942Z,9.02
2022-09-28T04:19:00.929Z,8.97
2022-09-28T04:20:00.943Z,9.10
2022-09-28T04:21:00.870Z,9.13
2022-09-28T04:22:00.904Z,9.18
2022-09-28T04:23:00.769Z,9.02
2022-09-28T04:24:00.936Z,9.05
2022-09-28T04:25:00.869Z,9.01
2022-09-28T04:26:00.744Z,9.13
2022-09-28T04:27:00.853Z,9.13
2022-09-28T04:28:00.867Z,9.05
2022-09-28T04:29:05.447Z,9.09
2022-09-28T04:30:02.935Z,9.10
2022-09-28T04:31:00.734Z,9.09
2022-09-28T04:32:00.749Z,9.05
2022-09-28T04:33:00.723Z,9.15
2022-09-28T04:34:00.813Z,9.06
2022-09-28T04:35:00.702Z,9.15
2022-09-28T04:36:00.743Z,9.20
2022-09-28T04:37:00.687Z,9.20
2022-09-28T04:38:00.689Z,9.18
2022-09-28T04:39:01.516Z,9.06
2022-09-28T04:40:00.733Z,8.99
2022-09-28T04:41:00.817Z,8.93
2022-09-28T04:42:00.745Z,8.93
2022-09-28T04:43:00.742Z,8.86
2022-09-28T04:44:00.642Z,8.93
2022-09-28T04:45:00.759Z,8.91
2022-09-28T04:46:01.790Z,8.90
2022-09-28T04:47:04.324Z,8.94
2022-09-28T04:48:13.429Z,9.05
2022-09-28T04:49:00.604Z,8.97
2022-09-28T04:50:11.079Z,9.05
2022-09-28T04:51:00.582Z,8.99
2022-09-28T04:52:00.611Z,8.86
2022-09-28T04:53:00.554Z,8.96
2022-09-28T04:54:01.682Z,8.96
2022-09-28T04:55:00.572Z,8.96
2022-09-28T04:56:00.576Z,9.06
2022-09-28T04:57:00.683Z,8.99
2022-09-28T04:58:01.538Z,9.04
2022-09-28T04:59:00.610Z,8.93
2022-09-28T05:00:00.617Z,8.99
2022-09-28T05:01:00.741Z,8.90
2022-09-28T05:02:00.530Z,9.01
2022-09-28T05:03:00.668Z,9.01
2022-09-28T05:04:00.600Z,8.88
2022-09-28T05:05:00.520Z,9.16
2022-09-28T05:06:00.490Z,9.01
2022-09-28T05:07:00.490Z,9.13
2022-09-28T05:08:00.663Z,9.10
2022-09-28T05:09:00.474Z,8.99
2022-09-28T05:10:00.478Z,9.09
2022-09-28T05:11:00.446Z,9.02
2022-09-28T05:12:00.482Z,9.10
2022-09-28T05:13:00.500Z,9.05
2022-09-28T05:14:00.634Z,9.18
2022-09-28T05:15:00.426Z,9.16
2022-09-28T05:16:05.073Z,9.21
2022-09-28T05:17:02.501Z,9.10
2022-09-28T05:18:00.393Z,9.13
2022-09-28T05:19:00.542Z,9.15
2022-09-28T05:20:00.474Z,9.09
2022-09-28T05:21:00.387Z,9.09
2022-09-28T05:22:00.470Z,9.25
2022-09-28T05:23:00.455Z,9.10
2022-09-28T05:24:00.394Z,9.24
2022-09-28T05:25:00.517Z,9.21
2022-09-28T05:26:00.436Z,9.25
2022-09-28T05:27:00.436Z,9.25
2022-09-28T05:28:00.334Z,9.31
2022-09-28T05:29:00.357Z,9.28
2022-09-28T05:30:00.457Z,9.23
2022-09-28T05:31:00.328Z,9.06
2022-09-28T05:32:00.361Z,9.09
2022-09-28T05:33:00.343Z,9.05
2022-09-28T05:34:00.391Z,9.01
2022-09-28T05:35:00.435Z,8.91
2022-09-28T05:36:01.669Z,8.91
2022-09-28T05:37:01.395Z,8.96
2022-09-28T05:38:00.378Z,8.86
2022-09-28T05:39:00.259Z,8.75
2022-09-28T05:40:00.387Z,8.81
2022-09-28T05:41:03.283Z,8.94
2022-09-28T05:42:02.289Z,8.83
2022-09-28T05:43:00.315Z,8.88
2022-09-28T05:44:00.395Z,8.73
2022-09-28T05:45:00.243Z,8.93
2022-09-28T05:46:00.396Z,8.93
2022-09-28T05:47:00.647Z,8.94
2022-09-28T05:48:00.290Z,8.99
2022-09-28T05:49:00.279Z,9.02
2022-09-28T05:50:00.267Z,9.06
2022-09-28T05:51:00.184Z,9.09
2022-09-28T05:52:00.228Z,9.04
2022-09-28T05:53:32.154Z,9.01
2022-09-28T05:54:32.168Z,9.02
2022-09-28T05:55:32.465Z,9.09
2022-09-28T05:56:32.164Z,9.18
2022-09-28T05:57:00.161Z,9.06
2022-09-28T05:58:32.272Z,9.09
2022-09-28T05:59:32.123Z,8.99
2022-09-28T06:00:32.178Z,8.86
2022-09-28T06:01:32.368Z,9.13
2022-09-28T06:02:00.207Z,9.05
2022-09-28T06:03:00.154Z,8.91
2022-09-28T06:04:01.267Z,9.18
2022-09-28T06:05:00.227Z,9.05
2022-09-28T06:06:00.115Z,9.13
2022-09-28T06:07:00.172Z,9.15
2022-09-28T06:08:00.164Z,9.20
2022-09-28T06:09:00.198Z,9.06
2022-09-28T06:10:00.183Z,9.12
2022-09-28T06:11:00.134Z,8.91
2022-09-28T06:12:00.650Z,9.02
2022-09-28T06:13:00.020Z,9.06
2022-09-28T06:14:01.088Z,9.01
2022-09-28T06:15:00.100Z,8.94
2022-09-28T06:16:00.126Z,9.04
2022-09-28T06:17:00.199Z,9.04
2022-09-28T06:17:59.987Z,8.97
2022-09-28T06:19:00.640Z,9.13
2022-09-28T06:20:00.148Z,8.99
2022-09-28T06:20:59.973Z,8.86
2022-09-28T06:22:00.058Z,9.04
2022-09-28T06:23:00.111Z,9.10
2022-09-28T06:23:59.944Z,9.04
2022-09-28T06:25:01.130Z,9.02
2022-09-28T06:26:00.028Z,8.93
2022-09-28T06:26:59.967Z,8.91
2022-09-28T06:28:00.007Z,9.04
2022-09-28T06:29:00.087Z,8.99
2022-09-28T06:29:59.914Z,8.99
2022-09-28T06:31:00.182Z,9.09
2022-09-28T06:31:59.908Z,8.91
2022-09-28T06:32:59.911Z,9.04
2022-09-28T06:34:00.067Z,9.09
2022-09-28T06:34:59.893Z,9.04
2022-09-28T06:35:59.899Z,9.09
2022-09-28T06:37:00.036Z,9.01
2022-09-28T06:37:59.929Z,9.12
2022-09-28T06:38:59.852Z,9.15
2022-09-28T06:39:59.941Z,9.09
2022-09-28T06:41:00.093Z,9.10
2022-09-28T06:41:59.843Z,9.09
2022-09-28T06:42:59.946Z,9.09
2022-09-28T06:43:59.981Z,9.12
2022-09-28T06:44:59.804Z,9.16
2022-09-28T06:46:00.020Z,9.16
2022-09-28T06:46:59.920Z,9.24
2022-09-28T06:47:59.783Z,9.24
2022-09-28T06:48:59.867Z,9.34
2022-09-28T06:49:59.846Z,9.23
2022-09-28T06:50:59.758Z,9.28
2022-09-28T06:52:00.243Z,9.39
2022-09-28T06:52:59.756Z,9.48
2022-09-28T06:53:59.790Z,9.25
2022-09-28T06:54:59.745Z,9.31
2022-09-28T06:55:59.816Z,9.35
2022-09-28T06:56:59.714Z,9.27
2022-09-28T06:57:59.734Z,9.34
2022-09-28T06:58:59.720Z,9.28
2022-09-28T06:59:59.682Z,9.32
2022-09-28T07:00:59.751Z,9.30
2022-09-28T07:02:00.719Z,9.46
2022-09-28T07:02:59.710Z,9.42
2022-09-28T07:03:59.742Z,9.53
2022-09-28T07:04:59.797Z,9.45
2022-09-28T07:05:59.645Z,9.49
2022-09-28T07:06:59.820Z,9.50
2022-09-28T07:07:59.769Z,9.63
2022-09-28T07:09:15.508Z,9.63
2022-09-28T07:10:01.657Z,9.64
2022-09-28T07:10:59.680Z,9.63
2022-09-28T07:11:59.662Z,9.64
2022-09-28T07:12:59.700Z,9.61
2022-09-28T07:13:59.710Z,9.56
2022-09-28T07:14:59.584Z,9.56
2022-09-28T07:15:59.705Z,9.52
2022-09-28T07:17:13.293Z,9.57
2022-09-28T07:18:03.481Z,9.64
2022-09-28T07:19:00.591Z,9.58
2022-09-28T07:20:05.890Z,9.71
2022-09-28T07:21:01.581Z,9.73
2022-09-28T07:22:05.126Z,9.79
2022-09-28T07:23:13.949Z,9.67
2022-09-28T07:24:01.771Z,9.76
2022-09-28T07:24:59.567Z,9.94
2022-09-28T07:25:59.662Z,9.96
2022-09-28T07:26:59.705Z,9.96
2022-09-28T07:27:59.510Z,10.03
2022-09-28T07:28:59.602Z,9.99
2022-09-28T07:29:59.713Z,9.86
2022-09-28T07:30:59.517Z,9.82
2022-09-28T07:31:59.747Z,9.82
2022-09-28T07:32:59.641Z,9.82
2022-09-28T07:33:59.435Z,9.83
2022-09-28T07:34:59.646Z,9.91
2022-09-28T07:35:59.547Z,9.94
2022-09-28T07:36:59.444Z,9.82
2022-09-28T07:37:59.528Z,9.89
2022-09-28T07:38:59.495Z,9.89
2022-09-28T07:39:59.540Z,9.93
2022-09-28T07:40:59.498Z,10.00
2022-09-28T07:42:02.529Z,9.89
2022-09-28T07:43:00.384Z,10.00
2022-09-28T07:43:59.481Z,9.99
2022-09-28T07:44:59.393Z,9.88
2022-09-28T07:45:59.448Z,9.94
2022-09-28T07:46:59.448Z,9.91
2022-09-28T07:47:59.496Z,10.00
2022-09-28T07:48:59.354Z,9.93
2022-09-28T07:49:59.437Z,9.91
2022-09-28T07:50:59.503Z,9.93
2022-09-28T07:51:59.341Z,9.97
2022-09-28T07:52:59.458Z,10.12
2022-09-28T07:53:59.405Z,10.10
2022-09-28T07:55:03.350Z,10.28
2022-09-28T07:56:00.764Z,10.32
2022-09-28T07:56:59.271Z,10.36
2022-09-28T07:58:00.377Z,10.56
2022-09-28T07:58:59.427Z,10.55
2022-09-28T07:59:59.361Z,10.36
2022-09-28T08:00:59.391Z,10.26
2022-09-28T08:01:59.518Z,10.12
2022-09-28T08:02:59.288Z,10.12
2022-09-28T08:03:59.236Z,10.19
2022-09-28T08:04:59.232Z,10.22
2022-09-28T08:05:59.248Z,10.37
2022-09-28T08:06:59.324Z,10.53
2022-09-28T08:07:59.862Z,10.58
2022-09-28T08:08:59.200Z,10.63
2022-09-28T08:09:59.299Z,10.66
2022-09-28T08:10:59.284Z,10.83
2022-09-28T08:11:59.323Z,10.84
2022-09-28T08:13:02.098Z,10.94
2022-09-28T08:13:59.306Z,11.16
2022-09-28T08:14:59.251Z,11.25
2022-09-28T08:15:59.240Z,11.32
2022-09-28T08:16:59.268Z,11.39
2022-09-28T08:18:02.627Z,11.21
2022-09-28T08:19:00.248Z,11.28
2022-09-28T08:19:59.212Z,11.27
2022-09-28T08:20:59.187Z,11.34
2022-09-28T08:21:59.188Z,11.29
2022-09-28T08:22:59.138Z,11.19
2022-09-28T08:23:59.119Z,11.03
2022-09-28T08:24:59.219Z,11.16
2022-09-28T08:25:59.087Z,11.17
2022-09-28T08:26:59.086Z,11.17
2022-09-28T08:27:59.060Z,11.10
2022-09-28T08:28:59.093Z,11.06
2022-09-28T08:29:59.123Z,10.99
2022-09-28T08:30:59.209Z,11.24
2022-09-28T08:32:01.581Z,11.13
2022-09-28T08:33:00.121Z,11.24
2022-09-28T08:33:59.172Z,11.13
2022-09-28T08:34:59.162Z,11.16
2022-09-28T08:35:59.104Z,11.02
2022-09-28T08:36:59.145Z,11.13
2022-09-28T08:37:59.090Z,11.13
2022-09-28T08:38:59.095Z,11.09
2022-09-28T08:39:59.088Z,11.07
2022-09-28T08:40:59.133Z,11.13
2022-09-28T08:41:59.078Z,11.20
2022-09-28T08:42:58.978Z,11.24
2022-09-28T08:43:58.944Z,11.28
2022-09-28T08:44:59.070Z,11.01
2022-09-28T08:45:59.012Z,11.13
2022-09-28T08:46:58.948Z,11.19
2022-09-28T08:47:59.049Z,11.11
2022-09-28T08:49:24.271Z,11.11
2022-09-28T08:50:00.959Z,11.10
2022-09-28T08:50:59.015Z,10.99
2022-09-28T08:51:58.997Z,11.01
2022-09-28T08:52:58.966Z,11.06
2022-09-28T08:53:58.971Z,10.98
2022-09-28T08:54:58.884Z,10.99
2022-09-28T08:55:59.031Z,10.99
2022-09-28T08:56:58.960Z,10.99
2022-09-28T08:57:59.085Z,10.96
2022-09-28T08:58:58.936Z,10.96
2022-09-28T08:59:59.087Z,11.03
2022-09-28T09:00:59.114Z,11.10
2022-09-28T09:01:58.937Z,11.07
2022-09-28T09:02:58.857Z,10.99
2022-09-28T09:03:58.933Z,11.01
2022-09-28T09:04:58.804Z,11.10
2022-09-28T09:05:58.881Z,11.09
2022-09-28T09:06:58.948Z,11.16
2022-09-28T09:07:58.874Z,11.02
2022-09-28T09:08:58.882Z,11.17
2022-09-28T09:09:58.836Z,11.43
2022-09-28T09:10:59.677Z,11.36
2022-09-28T09:11:58.893Z,11.29
2022-09-28T09:12:58.864Z,11.21
2022-09-28T09:13:58.826Z,11.31
2022-09-28T09:14:58.815Z,11.32
2022-09-28T09:15:58.756Z,11.41
2022-09-28T09:17:00.475Z,11.57
2022-09-28T09:17:59.771Z,11.57
2022-09-28T09:18:58.722Z,11.50
2022-09-28T09:19:59.806Z,11.39
2022-09-28T09:20:58.888Z,11.44
2022-09-28T09:21:58.805Z,11.24
2022-09-28T09:22:58.897Z,11.13
2022-09-28T09:23:58.794Z,11.10
2022-09-28T09:24:58.801Z,11.17
2022-09-28T09:25:58.782Z,11.16
2022-09-28T09:26:58.817Z,11.10
2022-09-28T09:27:58.706Z,11.20
2022-09-28T09:28:58.766Z,11.19
2022-09-28T09:29:58.721Z,11.10
2022-09-28T09:30:58.749Z,11.24
2022-09-28T09:31:58.616Z,11.20
2022-09-28T09:32:58.589Z,11.20
2022-09-28T09:33:58.704Z,11.19
2022-09-28T09:34:58.730Z,11.13
2022-09-28T09:35:58.757Z,11.10
2022-09-28T09:36:58.664Z,11.02
2022-09-28T09:37:58.803Z,11.09
2022-09-28T09:38:58.693Z,11.09
2022-09-28T09:39:59.712Z,11.02
2022-09-28T09:40:58.688Z,11.13
2022-09-28T09:41:58.674Z,11.07
2022-09-28T09:42:58.718Z,11.17
2022-09-28T09:43:58.685Z,11.13
2022-09-28T09:44:58.629Z,11.24
2022-09-28T09:45:58.566Z,11.14
2022-09-28T09:46:58.511Z,10.94
2022-09-28T09:47:58.564Z,11.01
2022-09-28T09:48:58.528Z,11.01
2022-09-28T09:49:58.512Z,11.03
2022-09-28T09:50:58.554Z,11.02
2022-09-28T09:51:58.488Z,10.98
2022-09-28T09:52:58.541Z,10.91
2022-09-28T09:53:58.536Z,10.86
2022-09-28T09:54:58.451Z,10.86
2022-09-28T09:55:58.584Z,10.80
2022-09-28T09:56:58.550Z,10.58
2022-09-28T09:57:58.528Z,10.66
2022-09-28T09:58:58.527Z,10.66
2022-09-28T09:59:58.497Z,10.60
2022-09-28T10:00:58.568Z,10.58
2022-09-28T10:01:58.891Z,10.40
2022-09-28T10:02:58.566Z,10.33
2022-09-28T10:03:58.385Z,10.19
2022-09-28T10:04:58.374Z,10.30
2022-09-28T10:05:58.479Z,10.30
2022-09-28T10:06:58.442Z,10.15
2022-09-28T10:07:58.382Z,10.17
2022-09-28T10:08:58.363Z,10.22
2022-09-28T10:09:58.373Z,10.36
2022-09-28T10:10:58.354Z,10.44
2022-09-28T10:11:58.434Z,10.47
2022-09-28T10:12:58.463Z,10.59
2022-09-28T10:13:58.470Z,10.77
2022-09-28T10:14:58.381Z,10.84
2022-09-28T10:15:58.416Z,10.91
2022-09-28T10:16:58.425Z,11.07
2022-09-28T10:17:58.423Z,10.95
2022-09-28T10:18:58.441Z,11.03
2022-09-28T10:19:58.361Z,11.14
2022-09-28T10:20:58.382Z,11.35
2022-09-28T10:21:58.390Z,11.50
2022-09-28T10:22:58.249Z,11.52
2022-09-28T10:23:58.300Z,11.41
2022-09-28T10:24:58.253Z,11.44
2022-09-28T10:25:58.359Z,11.46
2022-09-28T10:26:58.256Z,11.53
2022-09-28T10:27:58.219Z,11.64
2022-09-28T10:28:58.247Z,11.64
2022-09-28T10:29:58.370Z,11.65
2022-09-28T10:30:58.370Z,11.72
2022-09-28T10:31:58.364Z,11.72
2022-09-28T10:32:58.350Z,11.85
2022-09-28T10:33:58.337Z,12.08
2022-09-28T10:34:58.262Z,12.16
2022-09-28T10:35:58.737Z,12.38
2022-09-28T10:36:58.347Z,12.54
2022-09-28T10:37:58.249Z,12.52
2022-09-28T10:38:58.268Z,12.63
2022-09-28T10:39:58.284Z,12.62
2022-09-28T10:40:58.202Z,12.60
2022-09-28T10:41:58.125Z,12.49
2022-09-28T10:42:58.210Z,12.63
2022-09-28T10:43:58.246Z,12.67
2022-09-28T10:44:59.257Z,12.64
2022-09-28T10:45:58.269Z,12.62
2022-09-28T10:46:58.247Z,12.67
2022-09-28T10:47:58.214Z,12.62
2022-09-28T10:48:58.169Z,12.52
2022-09-28T10:49:58.229Z,12.81
2022-09-28T10:50:58.167Z,12.69
2022-09-28T10:51:58.154Z,12.89
2022-09-28T10:52:58.174Z,13.00
2022-09-28T10:53:58.138Z,13.06
2022-09-28T10:54:58.202Z,13.12
2022-09-28T10:55:58.165Z,13.07
2022-09-28T10:56:58.025Z,12.87
2022-09-28T10:57:57.994Z,12.82
2022-09-28T10:58:58.088Z,12.81
2022-09-28T10:59:58.089Z,12.67
2022-09-28T11:00:58.161Z,12.54
2022-09-28T11:01:58.086Z,12.59
2022-09-28T11:02:58.417Z,12.52
2022-09-28T11:03:58.031Z,12.69
2022-09-28T11:04:58.048Z,12.49
2022-09-28T11:05:58.074Z,12.38
2022-09-28T11:07:58.056Z,12.34
2022-09-28T11:08:58.029Z,12.42
2022-09-28T11:09:57.929Z,12.20
2022-09-28T11:10:57.960Z,12.20
2022-09-28T11:11:58.062Z,12.13
2022-09-28T11:12:57.892Z,12.13
2022-09-28T11:13:57.930Z,11.89
2022-09-28T11:14:57.878Z,11.97
2022-09-28T11:15:57.875Z,12.09
2022-09-28T11:16:57.948Z,12.09
2022-09-28T11:17:57.889Z,12.11
2022-09-28T11:18:57.990Z,12.12
2022-09-28T11:19:57.948Z,11.96
2022-09-28T11:20:57.941Z,12.12
2022-09-28T11:21:57.911Z,12.06
2022-09-28T11:22:57.961Z,12.12
2022-09-28T11:23:57.906Z,12.11
2022-09-28T11:24:57.911Z,12.12
2022-09-28T11:25:57.897Z,12.15
2022-09-28T11:26:57.878Z,12.23
2022-09-28T11:27:57.910Z,12.34
2022-09-28T11:28:57.810Z,12.34
2022-09-28T11:29:57.788Z,12.54
2022-09-28T11:30:57.830Z,12.66
2022-09-28T11:31:57.751Z,12.42
2022-09-28T11:32:57.748Z,12.44
2022-09-28T11:33:57.856Z,12.51
2022-09-28T11:35:00.084Z,12.60
2022-09-28T11:35:58.937Z,12.45
2022-09-28T11:37:01.588Z,12.62
2022-09-28T11:37:58.935Z,12.49
2022-09-28T11:38:57.766Z,12.42
2022-09-28T11:39:57.854Z,12.34
2022-09-28T11:40:57.827Z,12.48
2022-09-28T11:41:57.877Z,12.30
2022-09-28T11:42:57.833Z,12.29
2022-09-28T11:43:57.779Z,12.39
2022-09-28T11:44:57.813Z,12.42
2022-09-28T11:45:57.792Z,12.62
2022-09-28T11:46:57.730Z,12.63
2022-09-28T11:47:57.747Z,12.66
2022-09-28T11:48:57.647Z,12.64
2022-09-28T11:49:57.648Z,12.52
2022-09-28T11:50:57.763Z,12.46
2022-09-28T11:51:57.730Z,12.48
2022-09-28T11:52:57.728Z,12.60
2022-09-28T11:53:57.714Z,12.56
2022-09-28T11:54:57.624Z,12.48
2022-09-28T11:55:57.794Z,12.31
2022-09-28T11:56:57.695Z,12.52
2022-09-28T11:57:57.732Z,12.56
2022-09-28T11:58:57.754Z,12.66
2022-09-28T11:59:57.748Z,12.66
2022-09-28T12:00:57.643Z,12.62
2022-09-28T12:01:57.830Z,12.77
2022-09-28T12:02:58.407Z,12.87
2022-09-28T12:03:57.564Z,12.85
2022-09-28T12:04:57.564Z,12.75
2022-09-28T12:05:57.598Z,12.78
2022-09-28T12:06:57.600Z,12.79
2022-09-28T12:07:57.582Z,12.70
2022-09-28T12:08:57.579Z,12.62
2022-09-28T12:09:57.619Z,12.52
2022-09-28T12:10:57.586Z,12.46
2022-09-28T12:11:57.583Z,12.57
2022-09-28T12:12:57.662Z,12.57
2022-09-28T12:13:57.563Z,12.54
2022-09-28T12:14:57.614Z,12.54
2022-09-28T13:33:57.133Z,20.09
2022-09-28T13:34:58.113Z,18.90
2022-09-28T13:35:58.096Z,17.57
2022-09-28T13:36:58.197Z,16.83
2022-09-28T13:37:58.084Z,15.97
2022-09-28T13:38:58.104Z,15.45
2022-09-28T13:39:58.042Z,14.84
2022-09-28T13:40:58.073Z,14.21
2022-09-28T13:41:58.059Z,14.24
2022-09-28T13:42:58.170Z,14.28
2022-09-28T13:43:58.131Z,14.31
2022-09-28T13:44:58.084Z,14.29
2022-09-28T13:45:59.122Z,14.31
2022-09-28T13:46:58.051Z,14.28
2022-09-28T13:47:58.057Z,14.19
2022-09-28T13:48:58.044Z,14.10
2022-09-28T13:49:58.183Z,14.02
2022-09-28T13:50:58.054Z,13.74
2022-09-28T13:51:58.121Z,13.32
2022-09-28T13:52:58.024Z,13.03
2022-09-28T13:53:58.150Z,12.92
2022-09-28T13:54:57.918Z,12.49
2022-09-28T13:55:58.014Z,12.51
2022-09-28T13:56:57.999Z,12.56
2022-09-28T13:57:57.910Z,12.70
2022-09-28T13:58:57.994Z,12.45
2022-09-28T13:59:58.149Z,12.42
2022-09-28T14:00:57.999Z,12.26
2022-09-28T14:01:59.821Z,11.99
2022-09-28T14:02:59.055Z,11.87
2022-09-28T14:03:57.953Z,11.72
2022-09-28T14:04:57.920Z,11.83
2022-09-28T14:05:57.924Z,11.93
2022-09-28T14:06:57.970Z,11.99
2022-09-28T14:07:57.887Z,11.93
2022-09-28T14:08:57.835Z,11.83
2022-09-28T14:09:57.847Z,11.94
2022-09-28T14:10:57.882Z,12.05
2022-09-28T14:11:57.910Z,13.44
2022-09-28T14:12:57.876Z,14.84
2022-09-28T14:13:57.872Z,15.88
2022-09-28T14:14:57.855Z,16.63
2022-09-28T14:15:57.894Z,17.48
2022-09-28T14:16:57.951Z,18.31
2022-09-28T14:17:57.843Z,18.90
2022-09-28T14:18:57.884Z,19.29
2022-09-28T14:19:57.860Z,19.24
2022-09-28T14:20:57.883Z,19.11
2022-09-28T14:21:57.794Z,18.76
2022-09-28T14:22:57.770Z,18.73
2022-09-28T14:23:59.829Z,18.90
2022-09-28T14:24:58.702Z,19.38
2022-09-28T14:25:57.709Z,19.86